sensor_id;sensor_type;location;lat;lon;timestamp;P1;durP1;ratioP1;P2;durP2;ratioP2
3979;SDS011;2004;52.452;13.120;2022-10-29T00:03:20;21.93;;;4.90;;
3979;SDS011;2004;52.452;13.120;2022-10-29T00:11:12;15.40;;;4.47;;
3979;SDS011;2004;52.452;13.120;2022-10-29T00:19:04;27.97;;;5.37;;
3979;SDS011;2004;52.452;13.120;2022-10-29T00:26:55;17.23;;;5.17;;
3979;SDS011;2004;52.452;13.120;2022-10-29T00:34:46;20.70;;;6.60;;
3979;SDS011;2004;52.452;13.120;2022-10-29T00:42:36;20.73;;;5.53;;
3979;SDS011;2004;52.452;13.120;2022-10-29T00:50:27;21.17;;;5.35;;
3979;SDS011;2004;52.452;13.120;2022-10-29T00:58:18;14.73;;;4.93;;
3979;SDS011;2004;52.452;13.120;2022-10-29T01:06:09;16.90;;;5.50;;
3979;SDS011;2004;52.452;13.120;2022-10-29T01:14:12;18.77;;;6.60;;
3979;SDS011;2004;52.452;13.120;2022-10-29T01:22:23;16.30;;;6.67;;
3979;SDS011;2004;52.452;13.120;2022-10-29T01:30:55;22.50;;;7.13;;
3979;SDS011;2004;52.452;13.120;2022-10-29T01:39:02;12.93;;;5.00;;
3979;SDS011;2004;52.452;13.120;2022-10-29T01:46:59;16.67;;;5.97;;
3979;SDS011;2004;52.452;13.120;2022-10-29T01:54:51;23.63;;;6.30;;
3979;SDS011;2004;52.452;13.120;2022-10-29T02:02:53;11.43;;;5.70;;
3979;SDS011;2004;52.452;13.120;2022-10-29T02:18:48;17.30;;;5.60;;
3979;SDS011;2004;52.452;13.120;2022-10-29T02:26:39;22.93;;;7.27;;
3979;SDS011;2004;52.452;13.120;2022-10-29T02:34:30;17.37;;;6.60;;
3979;SDS011;2004;52.452;13.120;2022-10-29T02:42:20;19.80;;;6.33;;
3979;SDS011;2004;52.452;13.120;2022-10-29T02:50:11;15.27;;;6.60;;
3979;SDS011;2004;52.452;13.120;2022-10-29T02:58:01;26.07;;;6.30;;
3979;SDS011;2004;52.452;13.120;2022-10-29T03:05:54;15.83;;;5.87;;
3979;SDS011;2004;52.452;13.120;2022-10-29T03:13:45;18.57;;;6.10;;
3979;SDS011;2004;52.452;13.120;2022-10-29T03:21:36;24.93;;;6.40;;
3979;SDS011;2004;52.452;13.120;2022-10-29T03:29:27;15.10;;;5.73;;
3979;SDS011;2004;52.452;13.120;2022-10-29T03:37:17;20.97;;;6.07;;
3979;SDS011;2004;52.452;13.120;2022-10-29T03:45:08;21.60;;;7.03;;
3979;SDS011;2004;52.452;13.120;2022-10-29T03:52:59;15.80;;;6.50;;
3979;SDS011;2004;52.452;13.120;2022-10-29T04:00:53;14.83;;;5.87;;
3979;SDS011;2004;52.452;13.120;2022-10-29T04:08:44;18.83;;;6.60;;
3979;SDS011;2004;52.452;13.120;2022-10-29T04:16:35;20.20;;;6.87;;
3979;SDS011;2004;52.452;13.120;2022-10-29T04:24:26;16.97;;;6.13;;
3979;SDS011;2004;52.452;13.120;2022-10-29T04:32:16;13.47;;;5.80;;
3979;SDS011;2004;52.452;13.120;2022-10-29T04:40:07;10.43;;;5.53;;
3979;SDS011;2004;52.452;13.120;2022-10-29T04:47:58;22.27;;;6.40;;
3979;SDS011;2004;52.452;13.120;2022-10-29T04:55:50;37.73;;;7.10;;
3979;SDS011;2004;52.452;13.120;2022-10-29T05:03:40;18.80;;;6.70;;
3979;SDS011;2004;52.452;13.120;2022-10-29T05:11:31;11.47;;;5.50;;
3979;SDS011;2004;52.452;13.120;2022-10-29T05:19:21;10.87;;;5.90;;
3979;SDS011;2004;52.452;13.120;2022-10-29T05:27:12;19.13;;;5.73;;
3979;SDS011;2004;52.452;13.120;2022-10-29T05:35:03;18.67;;;5.27;;
3979;SDS011;2004;52.452;13.120;2022-10-29T05:42:53;14.17;;;5.70;;
3979;SDS011;2004;52.452;13.120;2022-10-29T05:50:44;11.93;;;6.43;;
3979;SDS011;2004;52.452;13.120;2022-10-29T05:58:34;15.00;;;6.50;;
3979;SDS011;2004;52.452;13.120;2022-10-29T06:06:25;19.40;;;6.43;;
3979;SDS011;2004;52.452;13.120;2022-10-29T06:14:16;30.53;;;6.80;;
3979;SDS011;2004;52.452;13.120;2022-10-29T06:22:07;18.33;;;6.07;;
3979;SDS011;2004;52.452;13.120;2022-10-29T06:29:58;16.63;;;7.20;;
3979;SDS011;2004;52.452;13.120;2022-10-29T06:37:48;15.30;;;7.27;;
3979;SDS011;2004;52.452;13.120;2022-10-29T06:45:39;17.90;;;6.60;;
3979;SDS011;2004;52.452;13.120;2022-10-29T06:53:29;14.87;;;5.90;;
3979;SDS011;2004;52.452;13.120;2022-10-29T07:01:20;17.93;;;7.27;;
3979;SDS011;2004;52.452;13.120;2022-10-29T07:09:10;22.07;;;6.83;;
3979;SDS011;2004;52.452;13.120;2022-10-29T07:17:01;15.00;;;7.47;;
3979;SDS011;2004;52.452;13.120;2022-10-29T07:24:51;18.50;;;6.10;;
3979;SDS011;2004;52.452;13.120;2022-10-29T07:32:42;10.67;;;6.20;;
3979;SDS011;2004;52.452;13.120;2022-10-29T07:40:33;16.13;;;6.50;;
3979;SDS011;2004;52.452;13.120;2022-10-29T07:48:23;28.67;;;8.00;;
3979;SDS011;2004;52.452;13.120;2022-10-29T07:56:14;15.97;;;6.33;;
3979;SDS011;2004;52.452;13.120;2022-10-29T08:04:04;20.50;;;7.03;;
3979;SDS011;2004;52.452;13.120;2022-10-29T08:11:55;13.50;;;5.53;;
3979;SDS011;2004;52.452;13.120;2022-10-29T08:19:45;17.50;;;6.77;;
3979;SDS011;2004;52.452;13.120;2022-10-29T08:27:36;26.77;;;7.27;;
3979;SDS011;2004;52.452;13.120;2022-10-29T08:35:27;25.77;;;6.87;;
3979;SDS011;2004;52.452;13.120;2022-10-29T08:43:24;19.20;;;6.53;;
3979;SDS011;2004;52.452;13.120;2022-10-29T08:51:35;22.23;;;7.40;;
3979;SDS011;2004;52.452;13.120;2022-10-29T08:59:28;13.00;;;4.80;;
3979;SDS011;2004;52.452;13.120;2022-10-29T09:07:27;22.47;;;6.33;;
3979;SDS011;2004;52.452;13.120;2022-10-29T09:15:29;22.17;;;6.43;;
3979;SDS011;2004;52.452;13.120;2022-10-29T09:32:02;23.57;;;5.63;;
3979;SDS011;2004;52.452;13.120;2022-10-29T09:39:59;21.13;;;7.47;;
3979;SDS011;2004;52.452;13.120;2022-10-29T09:55:58;18.70;;;5.03;;
3979;SDS011;2004;52.452;13.120;2022-10-29T10:03:52;17.70;;;6.33;;
3979;SDS011;2004;52.452;13.120;2022-10-29T10:11:48;10.20;;;5.10;;
3979;SDS011;2004;52.452;13.120;2022-10-29T10:19:42;14.50;;;6.00;;
3979;SDS011;2004;52.452;13.120;2022-10-29T10:27:34;15.80;;;6.20;;
3979;SDS011;2004;52.452;13.120;2022-10-29T10:35:26;14.60;;;6.10;;
3979;SDS011;2004;52.452;13.120;2022-10-29T10:43:19;14.87;;;6.10;;
3979;SDS011;2004;52.452;13.120;2022-10-29T10:51:15;18.73;;;5.67;;
3979;SDS011;2004;52.452;13.120;2022-10-29T10:59:11;38.57;;;11.13;;
3979;SDS011;2004;52.452;13.120;2022-10-29T11:07:05;20.33;;;6.40;;
3979;SDS011;2004;52.452;13.120;2022-10-29T11:15:21;21.10;;;7.70;;
3979;SDS011;2004;52.452;13.120;2022-10-29T11:23:19;23.52;;;7.70;;
3979;SDS011;2004;52.452;13.120;2022-10-29T11:31:39;18.80;;;7.00;;
3979;SDS011;2004;52.452;13.120;2022-10-29T11:40:02;24.70;;;8.02;;
3979;SDS011;2004;52.452;13.120;2022-10-29T11:56:06;22.52;;;7.50;;
3979;SDS011;2004;52.452;13.120;2022-10-29T12:04:26;13.37;;;5.63;;
3979;SDS011;2004;52.452;13.120;2022-10-29T12:20:57;21.67;;;7.33;;
3979;SDS011;2004;52.452;13.120;2022-10-29T12:29:06;19.93;;;6.33;;
3979;SDS011;2004;52.452;13.120;2022-10-29T12:37:43;26.33;;;5.97;;
3979;SDS011;2004;52.452;13.120;2022-10-29T12:54:35;17.87;;;6.20;;
3979;SDS011;2004;52.452;13.120;2022-10-29T13:18:25;22.87;;;5.67;;
3979;SDS011;2004;52.452;13.120;2022-10-29T13:34:50;12.80;;;5.37;;
3979;SDS011;2004;52.452;13.120;2022-10-29T13:42:42;16.27;;;5.93;;
3979;SDS011;2004;52.452;13.120;2022-10-29T13:50:33;16.80;;;6.30;;
3979;SDS011;2004;52.452;13.120;2022-10-29T13:58:30;20.63;;;8.63;;
3979;SDS011;2004;52.452;13.120;2022-10-29T14:06:31;33.73;;;11.90;;
3979;SDS011;2004;52.452;13.120;2022-10-29T14:14:27;16.93;;;7.80;;
3979;SDS011;2004;52.452;13.120;2022-10-29T14:22:36;13.93;;;6.20;;
3979;SDS011;2004;52.452;13.120;2022-10-29T14:30:28;22.20;;;10.33;;
3979;SDS011;2004;52.452;13.120;2022-10-29T14:38:19;24.40;;;10.57;;
3979;SDS011;2004;52.452;13.120;2022-10-29T14:46:13;16.80;;;6.93;;
3979;SDS011;2004;52.452;13.120;2022-10-29T14:54:17;16.92;;;7.70;;
3979;SDS011;2004;52.452;13.120;2022-10-29T15:02:11;18.73;;;8.07;;
3979;SDS011;2004;52.452;13.120;2022-10-29T15:10:20;17.80;;;6.68;;
3979;SDS011;2004;52.452;13.120;2022-10-29T15:18:16;19.15;;;6.15;;
3979;SDS011;2004;52.452;13.120;2022-10-29T15:26:14;19.88;;;7.47;;
3979;SDS011;2004;52.452;13.120;2022-10-29T15:34:12;13.77;;;6.27;;
3979;SDS011;2004;52.452;13.120;2022-10-29T15:42:06;14.23;;;6.90;;
3979;SDS011;2004;52.452;13.120;2022-10-29T15:50:11;17.27;;;7.90;;
3979;SDS011;2004;52.452;13.120;2022-10-29T15:58:10;16.03;;;8.60;;
3979;SDS011;2004;52.452;13.120;2022-10-29T16:06:04;21.23;;;8.03;;
3979;SDS011;2004;52.452;13.120;2022-10-29T16:13:56;21.90;;;8.50;;
3979;SDS011;2004;52.452;13.120;2022-10-29T16:21:49;19.40;;;9.67;;
3979;SDS011;2004;52.452;13.120;2022-10-29T16:29:39;25.83;;;9.70;;
3979;SDS011;2004;52.452;13.120;2022-10-29T16:37:30;18.07;;;8.90;;
3979;SDS011;2004;52.452;13.120;2022-10-29T16:45:25;18.80;;;9.30;;
3979;SDS011;2004;52.452;13.120;2022-10-29T16:53:17;19.87;;;9.13;;
3979;SDS011;2004;52.452;13.120;2022-10-29T17:01:08;14.07;;;7.60;;
3979;SDS011;2004;52.452;13.120;2022-10-29T17:09:03;30.10;;;10.13;;
3979;SDS011;2004;52.452;13.120;2022-10-29T17:16:55;25.80;;;10.77;;
3979;SDS011;2004;52.452;13.120;2022-10-29T17:24:46;24.53;;;11.47;;
3979;SDS011;2004;52.452;13.120;2022-10-29T17:32:36;23.50;;;13.13;;
3979;SDS011;2004;52.452;13.120;2022-10-29T17:40:27;24.73;;;13.67;;
3979;SDS011;2004;52.452;13.120;2022-10-29T17:48:17;29.83;;;14.43;;
3979;SDS011;2004;52.452;13.120;2022-10-29T17:56:08;29.40;;;14.70;;
3979;SDS011;2004;52.452;13.120;2022-10-29T18:03:59;32.13;;;15.93;;
3979;SDS011;2004;52.452;13.120;2022-10-29T18:11:50;41.10;;;12.90;;
3979;SDS011;2004;52.452;13.120;2022-10-29T18:19:41;23.00;;;13.27;;
3979;SDS011;2004;52.452;13.120;2022-10-29T18:27:31;30.50;;;13.37;;
3979;SDS011;2004;52.452;13.120;2022-10-29T18:35:22;25.97;;;11.83;;
3979;SDS011;2004;52.452;13.120;2022-10-29T18:43:13;31.03;;;15.60;;
3979;SDS011;2004;52.452;13.120;2022-10-29T18:51:05;32.10;;;15.97;;
3979;SDS011;2004;52.452;13.120;2022-10-29T18:59:00;36.00;;;18.53;;
3979;SDS011;2004;52.452;13.120;2022-10-29T19:06:50;34.97;;;16.63;;
3979;SDS011;2004;52.452;13.120;2022-10-29T19:14:44;31.20;;;15.97;;
3979;SDS011;2004;52.452;13.120;2022-10-29T19:22:34;23.33;;;14.63;;
3979;SDS011;2004;52.452;13.120;2022-10-29T19:30:25;29.80;;;14.57;;
3979;SDS011;2004;52.452;13.120;2022-10-29T19:38:15;27.60;;;13.87;;
3979;SDS011;2004;52.452;13.120;2022-10-29T19:46:10;29.90;;;14.83;;
3979;SDS011;2004;52.452;13.120;2022-10-29T19:54:02;32.13;;;16.20;;
3979;SDS011;2004;52.452;13.120;2022-10-29T20:01:54;33.67;;;18.50;;
3979;SDS011;2004;52.452;13.120;2022-10-29T20:09:44;36.93;;;17.90;;
3979;SDS011;2004;52.452;13.120;2022-10-29T20:17:35;30.17;;;16.40;;
3979;SDS011;2004;52.452;13.120;2022-10-29T20:25:25;38.73;;;16.20;;
3979;SDS011;2004;52.452;13.120;2022-10-29T20:33:16;37.27;;;16.50;;
3979;SDS011;2004;52.452;13.120;2022-10-29T20:41:06;36.63;;;16.00;;
3979;SDS011;2004;52.452;13.120;2022-10-29T20:48:57;31.60;;;14.40;;
3979;SDS011;2004;52.452;13.120;2022-10-29T20:56:48;29.40;;;14.20;;
3979;SDS011;2004;52.452;13.120;2022-10-29T21:04:38;30.93;;;15.73;;
3979;SDS011;2004;52.452;13.120;2022-10-29T21:12:29;27.10;;;14.63;;
3979;SDS011;2004;52.452;13.120;2022-10-29T21:20:19;31.23;;;17.27;;
3979;SDS011;2004;52.452;13.120;2022-10-29T21:28:11;27.70;;;16.77;;
3979;SDS011;2004;52.452;13.120;2022-10-29T21:36:01;34.37;;;15.73;;
3979;SDS011;2004;52.452;13.120;2022-10-29T21:43:53;35.50;;;16.17;;
3979;SDS011;2004;52.452;13.120;2022-10-29T21:51:43;22.40;;;15.10;;
3979;SDS011;2004;52.452;13.120;2022-10-29T21:59:34;25.80;;;15.67;;
3979;SDS011;2004;52.452;13.120;2022-10-29T22:07:24;27.53;;;15.33;;
3979;SDS011;2004;52.452;13.120;2022-10-29T22:15:15;24.97;;;14.13;;
3979;SDS011;2004;52.452;13.120;2022-10-29T22:23:06;20.53;;;13.27;;
3979;SDS011;2004;52.452;13.120;2022-10-29T22:30:57;24.73;;;14.27;;
3979;SDS011;2004;52.452;13.120;2022-10-29T22:38:53;21.70;;;13.27;;
3979;SDS011;2004;52.452;13.120;2022-10-29T22:46:48;29.10;;;13.17;;
3979;SDS011;2004;52.452;13.120;2022-10-29T22:54:39;27.47;;;13.70;;
3979;SDS011;2004;52.452;13.120;2022-10-29T23:02:29;21.77;;;13.00;;
3979;SDS011;2004;52.452;13.120;2022-10-29T23:10:20;26.17;;;13.60;;
3979;SDS011;2004;52.452;13.120;2022-10-29T23:18:10;21.27;;;13.90;;
3979;SDS011;2004;52.452;13.120;2022-10-29T23:26:01;31.47;;;14.53;;
3979;SDS011;2004;52.452;13.120;2022-10-29T23:33:53;24.10;;;12.93;;
3979;SDS011;2004;52.452;13.120;2022-10-29T23:41:45;22.67;;;13.80;;
3979;SDS011;2004;52.452;13.120;2022-10-29T23:49:35;26.53;;;14.90;;
3979;SDS011;2004;52.452;13.120;2022-10-29T23:57:26;26.60;;;12.90;;
